createdAt,value
2019-03-04T00:02:24.599Z,19.69
2019-03-04T00:04:59.157Z,19.69
2019-03-04T00:07:33.476Z,19.69
2019-03-04T00:10:07.836Z,19.70
2019-03-04T00:12:42.102Z,19.67
2019-03-04T00:15:16.317Z,19.68
2019-03-04T00:17:50.455Z,19.68
2019-03-04T00:20:24.630Z,19.68
2019-03-04T00:22:58.759Z,19.67
2019-03-04T00:25:33.101Z,19.66
2019-03-04T00:28:07.402Z,19.65
2019-03-04T00:30:41.750Z,19.66
2019-03-04T00:33:16.081Z,19.64
2019-03-04T00:35:51.128Z,19.63
2019-03-04T00:38:25.512Z,19.64
2019-03-04T00:40:59.460Z,19.64
2019-03-04T00:43:33.823Z,19.63
2019-03-04T00:46:08.124Z,19.62
2019-03-04T00:48:43.505Z,19.62
2019-03-04T00:51:17.647Z,19.63
2019-03-04T00:53:52.066Z,19.61
2019-03-04T00:56:26.504Z,19.61
2019-03-04T00:59:01.217Z,19.60
2019-03-04T01:01:36.544Z,19.60
2019-03-04T01:04:11.016Z,19.60
2019-03-04T01:06:45.343Z,19.59
2019-03-04T01:09:20.251Z,19.58
2019-03-04T01:11:54.595Z,19.57
2019-03-04T01:14:29.106Z,19.58
2019-03-04T01:17:03.358Z,19.57
2019-03-04T01:19:37.680Z,19.57
2019-03-04T01:22:12.204Z,19.56
2019-03-04T01:24:46.505Z,19.57
2019-03-04T01:27:20.927Z,19.56
2019-03-04T01:29:55.137Z,19.56
2019-03-04T01:32:29.436Z,19.57
2019-03-04T01:35:04.019Z,19.55
2019-03-04T01:37:38.476Z,19.56
2019-03-04T01:40:14.979Z,19.55
2019-03-04T01:42:49.419Z,19.55
2019-03-04T01:45:23.505Z,19.56
2019-03-04T01:47:58.225Z,19.54
2019-03-04T01:50:32.469Z,19.55
2019-03-04T01:53:06.852Z,19.54
2019-03-04T01:55:41.147Z,19.52
2019-03-04T01:58:16.506Z,19.52
2019-03-04T02:00:51.797Z,19.53
2019-03-04T02:03:26.007Z,19.52
2019-03-04T02:06:00.996Z,19.53
2019-03-04T02:08:35.067Z,19.50
2019-03-04T02:11:11.140Z,19.51
2019-03-04T02:13:45.326Z,19.51
2019-03-04T02:16:19.721Z,19.50
2019-03-04T02:18:53.939Z,19.46
2019-03-04T02:21:28.375Z,19.46
2019-03-04T02:24:36.970Z,19.45
2019-03-04T02:27:11.291Z,19.45
2019-03-04T02:29:45.375Z,19.48
2019-03-04T02:32:19.638Z,19.49
2019-03-04T02:34:53.631Z,19.46
2019-03-04T02:37:29.897Z,19.46
2019-03-04T02:40:04.286Z,19.45
2019-03-04T02:42:38.431Z,19.44
2019-03-04T02:45:14.595Z,19.43
2019-03-04T02:47:50.150Z,19.43
2019-03-04T02:50:24.381Z,19.43
2019-03-04T02:52:59.919Z,19.43
2019-03-04T02:55:35.288Z,19.43
2019-03-04T02:58:09.568Z,19.44
2019-03-04T03:00:44.294Z,19.44
2019-03-04T03:05:50.888Z,19.43
2019-03-04T03:08:25.125Z,19.55
2019-03-04T03:10:59.703Z,19.48
2019-03-04T03:13:34.009Z,19.45
2019-03-04T03:16:08.603Z,19.48
2019-03-04T03:18:42.685Z,19.60
2019-03-04T03:21:17.847Z,19.52
2019-03-04T03:23:51.937Z,19.50
2019-03-04T03:26:26.184Z,19.46
2019-03-04T03:29:00.159Z,19.44
2019-03-04T03:31:35.411Z,19.42
2019-03-04T03:34:09.645Z,19.42
2019-03-04T03:36:43.932Z,19.43
2019-03-04T03:39:18.042Z,19.45
2019-03-04T03:41:52.200Z,19.46
2019-03-04T03:44:26.632Z,19.46
2019-03-04T03:47:00.772Z,19.46
2019-03-04T03:49:35.160Z,19.45
2019-03-04T03:52:09.421Z,19.37
2019-03-04T03:54:43.735Z,19.38
2019-03-04T03:57:17.960Z,19.40
2019-03-04T03:59:52.350Z,19.39
2019-03-04T04:02:26.345Z,19.39
2019-03-04T04:05:01.045Z,19.39
2019-03-04T04:07:35.140Z,19.40
2019-03-04T04:10:11.156Z,19.35
2019-03-04T04:12:45.369Z,19.30
2019-03-04T04:15:20.009Z,19.29
2019-03-04T04:17:54.163Z,19.29
2019-03-04T04:20:28.493Z,19.27
2019-03-04T04:23:02.546Z,19.25
2019-03-04T04:25:36.599Z,19.25
2019-03-04T04:28:11.105Z,19.24
2019-03-04T04:30:45.322Z,19.23
2019-03-04T04:33:20.281Z,19.23
2019-03-04T04:35:54.874Z,19.22
2019-03-04T04:38:29.193Z,19.23
2019-03-04T04:41:03.520Z,19.25
2019-03-04T04:43:38.692Z,19.24
2019-03-04T04:46:12.979Z,19.27
2019-03-04T04:48:46.975Z,19.28
2019-03-04T04:51:21.206Z,19.31
2019-03-04T04:53:55.459Z,19.34
2019-03-04T04:56:29.897Z,19.28
2019-03-04T04:59:04.294Z,19.25
2019-03-04T05:01:38.714Z,19.23
2019-03-04T05:04:13.180Z,19.23
2019-03-04T05:06:47.590Z,19.23
2019-03-04T05:09:21.914Z,19.21
2019-03-04T05:11:55.977Z,19.23
2019-03-04T05:14:30.119Z,19.26
2019-03-04T05:17:04.667Z,19.27
2019-03-04T05:19:38.945Z,19.28
2019-03-04T05:22:13.305Z,19.28
2019-03-04T05:24:48.469Z,19.28
2019-03-04T05:27:22.871Z,19.26
2019-03-04T05:29:58.189Z,19.28
2019-03-04T05:32:32.234Z,19.28
2019-03-04T05:35:07.084Z,19.27
2019-03-04T05:37:41.453Z,19.26
2019-03-04T05:40:17.689Z,19.27
2019-03-04T05:42:51.976Z,19.28
2019-03-04T05:45:26.085Z,19.27
2019-03-04T05:48:00.354Z,19.28
2019-03-04T05:50:37.611Z,19.26
2019-03-04T05:53:11.750Z,19.27
2019-03-04T05:55:46.187Z,19.28
2019-03-04T05:58:20.271Z,19.28
2019-03-04T06:01:20.925Z,19.27
2019-03-04T06:03:56.170Z,19.26
2019-03-04T06:06:55.803Z,19.26
2019-03-04T06:09:31.165Z,19.27
2019-03-04T06:12:05.439Z,19.28
2019-03-04T06:14:39.839Z,19.30
2019-03-04T06:17:15.095Z,19.28
2019-03-04T06:19:49.109Z,19.27
2019-03-04T06:22:23.256Z,19.26
2019-03-04T06:24:58.394Z,19.25
2019-03-04T06:27:33.509Z,19.25
2019-03-04T06:30:08.520Z,19.26
2019-03-04T06:32:42.842Z,19.25
2019-03-04T06:35:17.145Z,19.26
2019-03-04T06:37:51.951Z,19.30
2019-03-04T06:40:26.535Z,19.33
2019-03-04T06:43:00.528Z,19.32
2019-03-04T06:45:34.638Z,19.33
2019-03-04T06:48:08.824Z,19.34
2019-03-04T06:50:53.722Z,19.34
2019-03-04T06:53:39.426Z,19.39
2019-03-04T06:56:59.868Z,19.41
2019-03-04T07:00:08.533Z,19.41
2019-03-04T07:02:42.876Z,19.40
2019-03-04T07:05:53.919Z,19.40
2019-03-04T07:09:11.471Z,19.40
2019-03-04T07:11:48.319Z,19.42
2019-03-04T07:14:22.383Z,19.46
2019-03-04T07:16:57.000Z,19.44
2019-03-04T07:19:39.292Z,19.50
2019-03-04T07:22:14.567Z,19.51
2019-03-04T07:24:48.830Z,19.49
2019-03-04T07:27:23.202Z,19.43
2019-03-04T07:29:57.613Z,19.42
2019-03-04T07:32:33.059Z,19.40
2019-03-04T07:35:07.308Z,19.41
2019-03-04T07:37:41.588Z,19.44
2019-03-04T07:40:16.994Z,19.47
2019-03-04T07:42:51.150Z,19.50
2019-03-04T07:45:25.453Z,19.48
2019-03-04T07:48:00.329Z,19.47
2019-03-04T07:50:35.463Z,19.46
2019-03-04T07:53:09.744Z,19.51
2019-03-04T07:55:44.212Z,19.46
2019-03-04T07:58:18.662Z,19.45
2019-03-04T08:00:53.928Z,19.43
2019-03-04T08:03:28.247Z,19.43
2019-03-04T08:06:04.167Z,19.43
2019-03-04T08:08:40.356Z,19.42
2019-03-04T08:11:48.672Z,19.42
2019-03-04T08:14:23.110Z,19.43
2019-03-04T08:16:57.595Z,19.42
2019-03-04T08:19:31.799Z,19.43
2019-03-04T08:22:06.563Z,19.42
2019-03-04T08:24:40.881Z,19.42
2019-03-04T08:27:15.017Z,19.42
2019-03-04T08:29:49.260Z,19.42
2019-03-04T08:32:24.773Z,19.42
2019-03-04T08:34:58.915Z,19.43
2019-03-04T08:37:33.300Z,19.48
2019-03-04T08:40:07.882Z,19.48
2019-03-04T08:42:44.127Z,19.49
2019-03-04T08:45:24.228Z,19.51
2019-03-04T08:48:00.506Z,19.52
2019-03-04T08:50:34.742Z,19.51
2019-03-04T08:53:08.940Z,19.53
2019-03-04T08:55:45.274Z,19.54
2019-03-04T08:58:19.495Z,19.54
2019-03-04T09:00:54.828Z,19.54
2019-03-04T09:03:31.113Z,19.54
2019-03-04T09:06:06.462Z,19.54
2019-03-04T09:08:41.734Z,19.52
2019-03-04T09:11:16.959Z,19.55
2019-03-04T09:13:53.642Z,19.57
2019-03-04T09:16:27.779Z,19.58
2019-03-04T09:19:02.498Z,19.59
2019-03-04T09:21:36.434Z,19.58
2019-03-04T09:24:10.794Z,19.59
2019-03-04T09:26:45.023Z,19.59
2019-03-04T09:29:19.461Z,19.58
2019-03-04T09:31:53.760Z,19.59
2019-03-04T09:34:28.150Z,19.61
2019-03-04T09:37:03.491Z,19.61
2019-03-04T09:39:37.545Z,19.62
2019-03-04T09:42:29.282Z,19.63
2019-03-04T09:45:03.491Z,19.64
2019-03-04T09:47:37.760Z,19.90
2019-03-04T09:50:16.463Z,19.78
2019-03-04T09:52:50.649Z,19.69
2019-03-04T09:55:25.024Z,19.64
2019-03-04T09:57:59.072Z,19.64
2019-03-04T10:00:54.338Z,19.63
2019-03-04T10:04:06.884Z,19.62
2019-03-04T10:07:14.653Z,19.64
2019-03-04T10:10:40.491Z,19.64
2019-03-04T10:13:44.370Z,19.63
2019-03-04T10:16:41.205Z,19.65
2019-03-04T10:19:43.952Z,19.65
2019-03-04T10:22:36.917Z,19.66
2019-03-04T10:25:24.484Z,19.66
2019-03-04T10:28:42.784Z,19.68
2019-03-04T10:31:57.855Z,19.69
2019-03-04T10:35:24.227Z,19.69
2019-03-04T10:38:49.640Z,19.71
2019-03-04T10:41:45.885Z,19.71
2019-03-04T10:44:38.481Z,19.71
2019-03-04T10:47:12.665Z,19.73
2019-03-04T10:49:46.791Z,19.74
2019-03-04T10:52:21.200Z,19.75
2019-03-04T10:54:55.271Z,19.74
2019-03-04T10:57:29.461Z,19.74
2019-03-04T11:00:03.821Z,19.76
2019-03-04T11:02:39.449Z,19.76
2019-03-04T11:05:31.845Z,19.78
2019-03-04T11:08:06.083Z,19.77
2019-03-04T11:10:41.822Z,19.78
2019-03-04T11:13:15.934Z,19.79
2019-03-04T11:15:50.048Z,19.79
2019-03-04T11:18:24.330Z,19.82
2019-03-04T11:20:58.577Z,19.80
2019-03-04T11:23:33.703Z,19.82
2019-03-04T11:26:07.700Z,19.83
2019-03-04T11:28:42.083Z,19.83
2019-03-04T11:31:16.199Z,19.84
2019-03-04T11:33:51.317Z,19.84
2019-03-04T11:36:25.641Z,19.85
2019-03-04T11:39:43.585Z,19.84
2019-03-04T11:42:18.270Z,19.86
2019-03-04T11:44:52.622Z,19.88
2019-03-04T11:47:28.144Z,19.89
2019-03-04T11:50:02.388Z,19.88
2019-03-04T11:52:37.230Z,19.89
2019-03-04T11:55:12.135Z,19.91
2019-03-04T11:57:46.583Z,19.92
2019-03-04T12:00:29.247Z,19.92
2019-03-04T12:03:03.376Z,19.93
2019-03-04T12:05:37.671Z,19.95
2019-03-04T12:08:11.984Z,19.94
2019-03-04T12:10:46.436Z,19.94
2019-03-04T12:13:20.659Z,19.96
2019-03-04T12:15:54.788Z,19.98
2019-03-04T12:18:29.219Z,19.97
2019-03-04T12:21:03.504Z,19.98
2019-03-04T12:23:38.258Z,19.98
2019-03-04T12:26:12.990Z,20.00
2019-03-04T12:28:47.038Z,20.00
2019-03-04T12:31:23.407Z,20.01
2019-03-04T12:33:57.758Z,20.02
2019-03-04T12:36:32.212Z,20.03
2019-03-04T12:39:07.498Z,20.02
2019-03-04T12:41:43.566Z,20.04
2019-03-04T12:44:17.865Z,20.05
2019-03-04T12:46:52.389Z,20.06
2019-03-04T12:49:26.667Z,20.06
2019-03-04T12:52:01.511Z,20.06
2019-03-04T12:54:35.680Z,20.07
2019-03-04T12:57:10.369Z,20.08
2019-03-04T12:59:44.517Z,20.08
2019-03-04T13:02:18.784Z,20.09
2019-03-04T13:04:53.032Z,20.10
2019-03-04T13:07:27.447Z,20.10
2019-03-04T13:10:01.875Z,20.23
2019-03-04T13:12:36.079Z,20.27
2019-03-04T13:15:13.377Z,20.24
2019-03-04T13:17:48.059Z,20.23
2019-03-04T13:20:22.592Z,20.26
2019-03-04T13:22:57.057Z,20.27
2019-03-04T13:25:31.173Z,20.26
2019-03-04T13:28:08.583Z,20.25
2019-03-04T13:30:42.339Z,20.25
2019-03-04T13:33:16.967Z,20.25
2019-03-04T13:35:54.275Z,20.27
2019-03-04T13:38:28.601Z,20.28
2019-03-04T13:41:03.436Z,20.33
2019-03-04T13:43:38.565Z,20.35
2019-03-04T13:46:14.622Z,20.38
2019-03-04T13:48:48.984Z,20.42
2019-03-04T13:51:24.466Z,20.42
2019-03-04T13:53:58.913Z,20.39
2019-03-04T13:56:33.558Z,20.38
2019-03-04T13:59:08.718Z,20.36
2019-03-04T14:01:43.365Z,20.36
2019-03-04T14:04:17.579Z,20.36
2019-03-04T14:06:53.539Z,20.37
2019-03-04T14:09:27.891Z,20.37
2019-03-04T14:12:02.089Z,20.36
2019-03-04T14:14:36.198Z,20.37
2019-03-04T14:17:11.235Z,20.37
2019-03-04T14:19:45.260Z,20.40
2019-03-04T14:22:20.597Z,20.43
2019-03-04T14:24:54.811Z,20.41
2019-03-04T14:27:30.127Z,20.41
2019-03-04T14:30:04.509Z,20.41
2019-03-04T14:32:39.824Z,20.42
2019-03-04T14:35:14.221Z,20.42
2019-03-04T14:37:49.834Z,20.43
2019-03-04T14:40:26.014Z,20.44
2019-03-04T14:43:00.145Z,20.45
2019-03-04T14:45:35.931Z,20.45
2019-03-04T14:48:10.988Z,20.46
2019-03-04T14:50:45.115Z,20.49
2019-03-04T14:53:19.360Z,20.48
2019-03-04T14:55:53.607Z,20.48
2019-03-04T14:58:28.117Z,20.47
2019-03-04T15:01:02.400Z,20.48
2019-03-04T15:03:37.474Z,20.48
2019-03-04T15:06:11.939Z,20.46
2019-03-04T15:08:46.236Z,20.48
2019-03-04T15:11:20.496Z,20.49
2019-03-04T15:13:54.697Z,20.50
2019-03-04T15:16:29.049Z,20.49
2019-03-04T15:19:03.446Z,20.52
2019-03-04T15:21:38.852Z,20.52
2019-03-04T15:24:12.906Z,20.50
2019-03-04T15:26:47.569Z,20.50
2019-03-04T15:29:24.221Z,20.49
2019-03-04T15:31:58.430Z,20.49
2019-03-04T15:34:32.547Z,20.49
2019-03-04T15:37:06.837Z,20.48
2019-03-04T15:39:40.859Z,20.49
2019-03-04T15:42:15.077Z,20.55
2019-03-04T15:44:49.301Z,20.53
2019-03-04T15:47:23.641Z,20.52
2019-03-04T15:49:58.898Z,20.53
2019-03-04T15:52:34.176Z,20.54
2019-03-04T15:55:08.556Z,20.54
2019-03-04T15:57:45.032Z,20.55
2019-03-04T16:00:19.917Z,20.54
2019-03-04T16:02:54.221Z,20.57
2019-03-04T16:05:29.047Z,20.62
2019-03-04T16:08:07.521Z,20.62
2019-03-04T16:10:39.295Z,20.61
2019-03-04T16:13:13.449Z,20.62
2019-03-04T16:15:48.427Z,20.64
2019-03-04T16:18:22.712Z,20.67
2019-03-04T16:20:57.547Z,20.66
2019-03-04T16:23:32.901Z,20.63
2019-03-04T16:26:14.083Z,20.62
2019-03-04T16:28:50.063Z,20.63
2019-03-04T16:31:24.533Z,20.62
2019-03-04T16:33:58.759Z,20.63
2019-03-04T16:36:32.969Z,20.63
2019-03-04T16:39:07.998Z,20.63
2019-03-04T16:41:43.231Z,20.69
2019-03-04T16:44:18.465Z,20.66
2019-03-04T16:46:52.645Z,20.70
2019-03-04T16:49:26.829Z,20.71
2019-03-04T16:52:01.080Z,20.72
2019-03-04T16:54:35.271Z,20.76
2019-03-04T16:57:16.164Z,20.77
2019-03-04T16:59:50.888Z,20.77
2019-03-04T17:02:25.072Z,20.76
2019-03-04T17:04:59.157Z,20.75
2019-03-04T17:07:33.472Z,20.76
2019-03-04T17:10:08.323Z,20.82
2019-03-04T17:12:42.821Z,20.84
2019-03-04T17:15:19.389Z,20.86
2019-03-04T17:17:53.983Z,20.92
2019-03-04T17:20:28.356Z,20.90
2019-03-04T17:23:02.713Z,20.86
2019-03-04T17:25:36.940Z,20.83
2019-03-04T17:28:13.255Z,20.86
2019-03-04T17:30:47.798Z,20.87
2019-03-04T17:33:22.140Z,20.86
2019-03-04T17:35:56.384Z,20.84
2019-03-04T17:38:31.043Z,20.84
2019-03-04T17:41:05.313Z,20.84
2019-03-04T17:43:39.324Z,20.84
2019-03-04T17:46:13.743Z,20.88
2019-03-04T17:48:48.055Z,20.88
2019-03-04T17:51:22.270Z,20.88
2019-03-04T17:53:56.536Z,20.88
2019-03-04T17:56:31.652Z,20.86
2019-03-04T17:59:06.042Z,20.91
2019-03-04T18:01:40.380Z,20.90
2019-03-04T18:04:14.906Z,20.89
2019-03-04T18:06:49.285Z,20.86
2019-03-04T18:09:25.424Z,20.88
2019-03-04T18:11:59.717Z,20.88
2019-03-04T18:14:34.979Z,20.87
2019-03-04T18:17:10.346Z,20.88
2019-03-04T18:19:44.605Z,20.92
2019-03-04T18:22:18.921Z,20.86
2019-03-04T18:24:53.318Z,21.19
2019-03-04T18:27:47.822Z,21.23
2019-03-04T18:30:37.968Z,21.26
2019-03-04T18:33:31.901Z,21.24
2019-03-04T18:36:28.929Z,21.26
2019-03-04T18:39:39.855Z,21.30
2019-03-04T18:42:56.788Z,21.30
2019-03-04T18:46:10.898Z,21.29
2019-03-04T18:49:01.669Z,21.28
2019-03-04T18:51:37.372Z,21.43
2019-03-04T18:54:14.427Z,21.49
2019-03-04T18:56:49.058Z,21.59
2019-03-04T18:59:24.484Z,21.56
2019-03-04T19:01:59.024Z,21.52
2019-03-04T19:04:33.161Z,21.60
2019-03-04T19:07:07.817Z,21.58
2019-03-04T19:09:43.295Z,21.55
2019-03-04T19:12:17.746Z,21.54
2019-03-04T19:14:52.298Z,21.59
2019-03-04T19:17:33.322Z,21.60
2019-03-04T19:20:02.686Z,21.48
2019-03-04T19:22:38.117Z,21.45
2019-03-04T19:25:12.540Z,21.54
2019-03-04T19:27:46.809Z,21.54
2019-03-04T19:30:21.078Z,21.58
2019-03-04T19:32:55.581Z,21.56
2019-03-04T19:35:30.592Z,21.54
2019-03-04T19:38:05.093Z,21.53
2019-03-04T19:40:39.381Z,21.54
2019-03-04T19:43:13.819Z,21.59
2019-03-04T19:45:48.684Z,21.59
2019-03-04T19:48:25.356Z,21.56
2019-03-04T19:50:59.289Z,21.58
2019-03-04T19:53:33.842Z,21.53
2019-03-04T19:56:09.252Z,21.49
2019-03-04T19:58:43.760Z,21.49
2019-03-04T20:01:19.173Z,21.50
2019-03-04T20:03:54.826Z,21.49
2019-03-04T20:06:29.168Z,21.54
2019-03-04T20:09:04.579Z,21.51
2019-03-04T20:11:40.271Z,21.48
2019-03-04T20:14:14.660Z,21.55
2019-03-04T20:16:50.481Z,21.52
2019-03-04T20:19:24.577Z,21.50
2019-03-04T20:21:59.874Z,21.54
2019-03-04T20:24:34.449Z,21.52
2019-03-04T20:27:08.793Z,21.50
2019-03-04T20:29:42.954Z,21.46
2019-03-04T20:32:17.139Z,21.45
2019-03-04T20:34:51.628Z,21.48
2019-03-04T20:37:27.451Z,21.48
2019-03-04T20:42:34.170Z,21.51
2019-03-04T20:45:10.329Z,21.50
2019-03-04T20:47:44.824Z,21.46
2019-03-04T20:50:20.784Z,21.48
2019-03-04T20:52:55.181Z,21.43
2019-03-04T20:55:29.815Z,21.45
2019-03-04T20:58:04.175Z,21.47
2019-03-04T21:00:40.072Z,21.57
2019-03-04T21:03:14.322Z,21.55
2019-03-04T21:05:48.375Z,21.57
2019-03-04T21:08:22.717Z,21.50
2019-03-04T21:10:57.417Z,21.49
2019-03-04T21:13:35.759Z,21.50
2019-03-04T21:16:07.830Z,21.56
2019-03-04T21:18:42.344Z,21.51
2019-03-04T21:21:17.655Z,21.55
2019-03-04T21:23:52.412Z,21.52
2019-03-04T21:26:29.480Z,21.52
2019-03-04T21:29:36.319Z,21.52
2019-03-04T21:32:40.921Z,21.55
2019-03-04T21:35:51.520Z,21.54
2019-03-04T21:38:30.071Z,21.51
2019-03-04T21:41:35.446Z,21.46
2019-03-04T21:44:48.212Z,21.48
2019-03-04T21:47:32.178Z,21.49
2019-03-04T21:50:09.017Z,21.48
2019-03-04T21:53:04.764Z,21.49
2019-03-04T21:56:03.722Z,21.52
2019-03-04T21:58:39.167Z,21.50
2019-03-04T22:01:27.081Z,21.48
2019-03-04T22:04:02.591Z,21.48
2019-03-04T22:06:37.321Z,21.43
2019-03-04T22:09:11.987Z,21.44
2019-03-04T22:11:48.531Z,21.47
2019-03-04T22:14:23.055Z,21.44
2019-03-04T22:16:57.357Z,21.50
2019-03-04T22:19:31.807Z,21.49
2019-03-04T22:22:05.920Z,21.49
2019-03-04T22:24:40.678Z,21.44
2019-03-04T22:27:15.017Z,21.48
2019-03-04T22:29:50.321Z,21.47
2019-03-04T22:32:24.308Z,21.44
2019-03-04T22:34:58.597Z,21.44
2019-03-04T22:37:33.816Z,21.44
2019-03-04T22:40:08.884Z,21.46
2019-03-04T22:42:43.265Z,21.43
2019-03-04T22:45:19.054Z,21.43
2019-03-04T22:47:53.671Z,21.41
2019-03-04T22:50:27.991Z,21.39
2019-03-04T22:53:02.697Z,21.44
2019-03-04T22:55:38.738Z,21.41
2019-03-04T22:58:15.039Z,21.42
2019-03-04T23:01:46.429Z,21.43
2019-03-04T23:04:41.231Z,21.40
2019-03-04T23:07:36.096Z,21.44
2019-03-04T23:10:49.156Z,21.44
2019-03-04T23:14:02.587Z,21.42
2019-03-04T23:16:36.841Z,21.43
2019-03-04T23:19:11.263Z,21.40
2019-03-04T23:21:45.550Z,21.38
2019-03-04T23:24:21.053Z,21.39
2019-03-04T23:26:55.281Z,21.39
2019-03-04T23:29:29.433Z,21.39
2019-03-04T23:32:03.583Z,21.42
2019-03-04T23:34:38.742Z,21.35
2019-03-04T23:37:13.013Z,21.37
2019-03-04T23:39:47.271Z,21.39
2019-03-04T23:42:21.640Z,21.40
2019-03-04T23:44:55.821Z,21.39
2019-03-04T23:47:30.276Z,21.39
2019-03-04T23:50:21.721Z,21.39
2019-03-04T23:52:56.308Z,21.37
2019-03-04T23:55:30.464Z,21.39
2019-03-04T23:58:05.675Z,21.34
